Time;durP1;ratioP1;P1;durP2;ratioP2;P2;SDS_P1;SDS_P2;PMS_P1;PMS_P2;Temp;Humidity;BMP_temperature;BMP_pressure;BME280_temperature;BME280_humidity;BME280_pressure;Samples;Min_cycle;Max_cycle;Signal;HPM_P1;HPM_P2
2023/07/23 00:01:04;;;;;;;2.50;0.90;;;15.50;99.90;;;;;;4976283;28;20043;-90
2023/07/23 00:03:30;;;;;;;3.22;1.00;;;15.50;99.90;;;;;;4953345;28;20038;-86
2023/07/23 00:05:56;;;;;;;2.67;0.90;;;15.40;99.90;;;;;;4961169;28;20491;-84
2023/07/23 00:08:22;;;;;;;2.50;0.80;;;15.40;99.90;;;;;;4986256;28;20042;-90
2023/07/23 00:10:48;;;;;;;2.58;1.13;;;15.40;99.90;;;;;;4986409;28;20088;-85
2023/07/23 00:13:13;;;;;;;2.97;1.00;;;15.40;99.90;;;;;;4951600;28;20733;-91
2023/07/23 00:15:39;;;;;;;3.33;0.90;;;15.40;99.90;;;;;;4971647;28;20030;-86
2023/07/23 00:18:05;;;;;;;2.38;1.00;;;15.40;99.90;;;;;;4953904;28;20046;-89
2023/07/23 00:20:31;;;;;;;2.25;0.75;;;15.40;99.90;;;;;;4956790;28;20039;-91
2023/07/23 00:22:56;;;;;;;2.92;1.08;;;15.40;99.90;;;;;;4973157;28;20041;-90
2023/07/23 00:25:22;;;;;;;2.75;0.90;;;15.40;99.90;;;;;;4984543;28;20074;-88
2023/07/23 00:27:48;;;;;;;2.78;1.05;;;15.40;99.90;;;;;;4965320;28;20071;-91
2023/07/23 00:30:13;;;;;;;7.93;1.00;;;15.40;99.90;;;;;;4956564;28;20133;-91
2023/07/23 00:32:39;;;;;;;2.28;0.85;;;15.30;99.90;;;;;;4954064;28;20030;-81
2023/07/23 00:35:05;;;;;;;4.18;1.00;;;15.30;99.90;;;;;;4988039;28;20062;-91
2023/07/23 00:37:31;;;;;;;1.90;0.93;;;15.40;99.90;;;;;;4956846;28;20070;-87
2023/07/23 00:39:57;;;;;;;1.80;0.80;;;15.40;99.90;;;;;;4987390;28;20133;-90
2023/07/23 00:42:23;;;;;;;2.15;0.82;;;15.40;99.90;;;;;;4956598;28;20081;-90
2023/07/23 00:44:49;;;;;;;2.47;0.80;;;15.30;99.90;;;;;;4975605;28;20052;-91
2023/07/23 00:47:16;;;;;;;2.40;1.05;;;15.50;99.90;;;;;;4989410;28;20031;-83
2023/07/23 00:49:42;;;;;;;1.80;0.73;;;15.40;99.90;;;;;;4970254;28;20121;-84
2023/07/23 00:52:08;;;;;;;1.75;0.85;;;15.40;99.90;;;;;;4969137;28;20110;-90
2023/07/23 00:54:34;;;;;;;2.65;1.00;;;15.40;99.90;;;;;;4968556;28;20479;-90
2023/07/23 00:57:02;;;;;;;2.55;0.95;;;15.40;99.90;;;;;;4954490;28;20082;-88
2023/07/23 00:59:30;;;;;;;2.47;0.80;;;15.40;99.90;;;;;;4958262;28;20089;-90
2023/07/23 01:01:57;;;;;;;2.17;0.68;;;15.40;99.90;;;;;;4957417;28;20042;-89
2023/07/23 01:04:23;;;;;;;1.55;0.70;;;15.40;99.90;;;;;;4958665;28;20402;-91
2023/07/23 01:06:50;;;;;;;2.47;0.90;;;15.40;99.90;;;;;;4957532;28;20077;-91
2023/07/23 01:09:18;;;;;;;3.22;0.70;;;15.40;99.90;;;;;;4957075;28;20563;-91
2023/07/23 01:11:44;;;;;;;1.80;0.73;;;15.40;99.90;;;;;;4972321;28;20117;-91
2023/07/23 01:14:09;;;;;;;1.70;0.60;;;15.40;99.90;;;;;;4975700;28;20472;-91
2023/07/23 01:16:36;;;;;;;3.15;0.93;;;15.40;99.90;;;;;;4968804;28;20026;-89
2023/07/23 01:19:03;;;;;;;1.70;0.90;;;15.40;99.90;;;;;;4986403;28;20031;-90
2023/07/23 01:21:29;;;;;;;1.95;0.82;;;15.40;99.90;;;;;;4960023;28;20046;-84
2023/07/23 01:23:55;;;;;;;3.53;0.85;;;15.40;99.90;;;;;;4959831;28;20494;-91
2023/07/23 01:26:21;;;;;;;2.03;0.60;;;15.40;99.90;;;;;;4971377;28;20053;-84
2023/07/23 01:28:47;;;;;;;1.70;0.60;;;15.40;99.90;;;;;;4973033;28;20038;-91
2023/07/23 01:31:13;;;;;;;2.10;0.77;;;15.40;99.90;;;;;;4978677;28;20066;-89
2023/07/23 01:33:42;;;;;;;1.83;0.88;;;15.40;99.90;;;;;;4960535;28;20054;-91
2023/07/23 01:36:10;;;;;;;1.63;0.70;;;15.40;99.90;;;;;;4979103;28;20042;-91
2023/07/23 01:38:35;;;;;;;2.50;0.70;;;15.40;99.90;;;;;;4959431;28;20031;-91
2023/07/23 01:41:01;;;;;;;2.47;1.02;;;15.40;99.90;;;;;;4975888;28;20042;-90
2023/07/23 01:43:28;;;;;;;2.17;0.80;;;15.40;99.90;;;;;;4971547;28;20391;-91
2023/07/23 01:45:54;;;;;;;2.67;0.70;;;15.40;99.90;;;;;;4975921;28;20042;-84
2023/07/23 01:48:21;;;;;;;3.40;1.27;;;15.30;99.90;;;;;;4975778;28;20073;-90
2023/07/23 01:50:47;;;;;;;1.75;0.50;;;15.40;99.90;;;;;;4975861;28;20558;-92
2023/07/23 01:53:13;;;;;;;1.58;0.77;;;15.40;99.90;;;;;;4988605;28;20065;-90
2023/07/23 01:55:39;;;;;;;1.73;0.70;;;15.40;99.90;;;;;;4956789;28;20495;-91
2023/07/23 01:58:05;;;;;;;1.70;0.77;;;15.40;99.90;;;;;;4973271;28;20531;-85
2023/07/23 02:00:30;;;;;;;2.10;0.60;;;15.40;99.90;;;;;;4979438;28;20096;-91
2023/07/23 02:02:56;;;;;;;1.67;0.60;;;15.40;99.90;;;;;;4975337;28;20042;-93
2023/07/23 02:05:22;;;;;;;1.95;0.60;;;15.40;99.90;;;;;;4972632;28;20046;-91
2023/07/23 02:07:48;;;;;;;2.95;0.60;;;15.40;99.90;;;;;;4957025;28;20035;-92
2023/07/23 02:10:14;;;;;;;1.90;0.60;;;15.40;99.90;;;;;;4959793;28;20038;-92
2023/07/23 02:12:40;;;;;;;2.13;1.17;;;15.40;99.90;;;;;;4959183;28;20046;-92
2023/07/23 02:15:06;;;;;;;1.70;0.65;;;15.40;99.90;;;;;;4975212;28;20039;-92
2023/07/23 02:17:32;;;;;;;1.92;0.60;;;15.40;99.90;;;;;;4956867;28;20053;-87
2023/07/23 02:19:57;;;;;;;1.50;0.60;;;15.40;99.90;;;;;;4961484;28;20113;-91
2023/07/23 02:22:23;;;;;;;1.85;0.60;;;15.40;99.90;;;;;;4975704;28;20038;-92
2023/07/23 02:24:49;;;;;;;2.47;0.68;;;15.40;99.90;;;;;;4974671;28;20100;-90
2023/07/23 02:27:15;;;;;;;1.70;0.60;;;15.40;99.90;;;;;;4971527;28;20039;-93
2023/07/23 02:29:41;;;;;;;1.92;0.68;;;15.40;99.90;;;;;;4975050;28;20085;-92
2023/07/23 02:32:07;;;;;;;3.47;0.57;;;15.40;99.90;;;;;;4974057;28;20034;-91
2023/07/23 02:34:33;;;;;;;2.15;0.60;;;15.40;99.90;;;;;;4974921;28;20053;-90
2023/07/23 02:36:59;;;;;;;1.88;0.60;;;15.40;99.90;;;;;;4975755;28;20173;-93
2023/07/23 02:39:24;;;;;;;2.03;0.60;;;15.40;99.90;;;;;;4975329;28;20510;-92
2023/07/23 02:41:53;;;;;;;2.95;0.60;;;15.40;99.90;;;;;;4957017;28;20035;-93
2023/07/23 02:44:18;;;;;;;1.38;0.50;;;15.40;99.90;;;;;;4990102;28;20045;-92
2023/07/23 02:46:44;;;;;;;1.58;0.60;;;15.40;99.90;;;;;;4969378;28;20046;-91
2023/07/23 02:49:10;;;;;;;1.77;0.60;;;15.40;99.90;;;;;;4986058;28;20057;-88
2023/07/23 02:51:35;;;;;;;1.60;0.70;;;15.40;99.90;;;;;;4972039;28;20075;-93
2023/07/23 02:54:01;;;;;;;1.17;0.60;;;15.40;99.90;;;;;;4954380;28;20137;-92
2023/07/23 02:56:27;;;;;;;1.42;0.70;;;15.40;99.90;;;;;;4949646;28;20035;-84
2023/07/23 02:58:53;;;;;;;1.35;0.63;;;15.40;99.90;;;;;;4972242;28;20249;-91
2023/07/23 03:01:20;;;;;;;1.60;0.70;;;15.40;99.90;;;;;;4953702;28;20043;-88
2023/07/23 03:03:47;;;;;;;1.60;0.60;;;15.40;99.90;;;;;;4971817;28;20038;-91
2023/07/23 03:06:14;;;;;;;2.38;0.60;;;15.40;99.90;;;;;;4967104;28;20073;-81
2023/07/23 03:08:40;;;;;;;2.05;0.70;;;15.40;99.90;;;;;;4973169;28;20470;-85
2023/07/23 03:11:06;;;;;;;2.13;0.50;;;15.40;99.90;;;;;;4955890;28;20043;-90
2023/07/23 03:13:32;;;;;;;3.75;0.80;;;15.30;99.90;;;;;;4956726;28;20045;-87
2023/07/23 03:16:00;;;;;;;2.63;1.27;;;15.40;99.90;;;;;;4976250;28;20072;-86
2023/07/23 03:18:28;;;;;;;2.38;0.98;;;15.40;99.90;;;;;;4956768;28;20441;-89
2023/07/23 03:20:54;;;;;;;1.90;0.77;;;15.40;99.90;;;;;;4987714;28;20057;-86
2023/07/23 03:23:20;;;;;;;2.22;0.80;;;15.40;99.90;;;;;;4956969;28;20043;-90
2023/07/23 03:25:45;;;;;;;2.78;0.80;;;15.40;99.90;;;;;;4974330;28;20042;-92
2023/07/23 03:28:11;;;;;;;2.78;0.95;;;15.40;99.90;;;;;;4977409;28;20487;-93
2023/07/23 03:30:37;;;;;;;2.50;0.98;;;15.40;99.90;;;;;;4958914;28;20391;-91
2023/07/23 03:33:03;;;;;;;2.67;0.90;;;15.40;99.90;;;;;;4969999;28;20038;-92
2023/07/23 03:35:29;;;;;;;2.00;0.95;;;15.40;99.90;;;;;;4956834;28;20039;-92
2023/07/23 03:37:55;;;;;;;2.30;0.90;;;15.40;99.90;;;;;;4958085;28;20045;-94
2023/07/23 03:40:21;;;;;;;2.80;0.90;;;15.40;99.90;;;;;;4973046;28;20494;-94
2023/07/23 03:42:46;;;;;;;2.15;1.00;;;15.40;99.90;;;;;;4971512;28;20069;-93
2023/07/23 03:45:12;;;;;;;3.75;1.23;;;15.40;99.90;;;;;;4956290;28;20487;-91
2023/07/23 03:47:38;;;;;;;3.28;0.88;;;15.40;99.90;;;;;;4958558;28;20089;-92
2023/07/23 03:50:04;;;;;;;2.55;1.05;;;15.40;99.90;;;;;;4970149;28;20042;-87
2023/07/23 03:52:30;;;;;;;1.95;0.70;;;15.40;99.90;;;;;;4972049;28;20039;-93
2023/07/23 03:54:56;;;;;;;1.65;0.85;;;15.40;99.90;;;;;;4973421;28;20042;-93
2023/07/23 03:57:21;;;;;;;2.28;0.80;;;15.40;99.90;;;;;;4961975;28;20041;-92
2023/07/23 03:59:47;;;;;;;2.80;0.75;;;15.40;99.90;;;;;;4971974;28;20102;-94
2023/07/23 04:02:13;;;;;;;2.30;0.90;;;15.40;99.90;;;;;;4989802;28;20030;-93
2023/07/23 04:04:40;;;;;;;2.63;0.80;;;15.50;99.90;;;;;;4957932;28;20056;-94
2023/07/23 04:07:07;;;;;;;2.65;1.00;;;15.50;99.90;;;;;;4974448;28;20038;-93
2023/07/23 04:09:33;;;;;;;2.08;0.80;;;15.50;99.90;;;;;;4954612;28;20035;-95
2023/07/23 04:12:00;;;;;;;1.70;0.80;;;15.50;99.90;;;;;;4955566;28;20108;-92
2023/07/23 04:14:26;;;;;;;4.07;1.65;;;15.50;99.90;;;;;;4970882;28;20046;-94
2023/07/23 04:16:53;;;;;;;3.05;1.13;;;15.50;99.90;;;;;;4959982;28;20062;-94
2023/07/23 04:19:18;;;;;;;4.00;1.80;;;15.50;99.90;;;;;;4961073;28;20436;-89
2023/07/23 04:21:45;;;;;;;2.58;1.30;;;15.60;99.90;;;;;;4973678;28;20117;-95
2023/07/23 04:24:11;;;;;;;2.40;1.15;;;15.50;99.90;;;;;;4972481;28;20139;-93
2023/07/23 04:26:37;;;;;;;3.50;1.58;;;15.50;99.90;;;;;;4957954;28;20123;-93
2023/07/23 04:29:02;;;;;;;5.40;2.72;;;15.60;99.90;;;;;;4977728;28;20034;-94
2023/07/23 04:31:28;;;;;;;2.78;1.20;;;15.60;99.90;;;;;;4960008;28;20042;-94
2023/07/23 04:33:54;;;;;;;3.45;1.60;;;15.60;99.90;;;;;;4974572;28;20052;-91
2023/07/23 04:36:20;;;;;;;4.38;1.85;;;15.60;99.90;;;;;;4972827;28;20223;-94
2023/07/23 04:38:46;;;;;;;3.40;2.05;;;15.70;99.90;;;;;;4987824;28;20458;-88
2023/07/23 04:41:12;;;;;;;4.18;1.77;;;15.70;99.90;;;;;;4977071;28;20085;-95
2023/07/23 04:43:39;;;;;;;3.22;1.63;;;15.70;99.90;;;;;;4976018;28;20053;-87
2023/07/23 04:46:05;;;;;;;2.95;1.67;;;15.70;99.90;;;;;;4993479;28;20050;-92
2023/07/23 04:48:34;;;;;;;4.50;2.00;;;15.80;99.90;;;;;;4976354;28;20058;-84
2023/07/23 04:51:04;;;;;;;3.70;1.30;;;15.80;99.90;;;;;;4976510;28;20084;-90
2023/07/23 04:53:31;;;;;;;2.80;1.15;;;15.80;99.90;;;;;;4987330;28;20039;-90
2023/07/23 04:55:58;;;;;;;3.90;1.70;;;15.80;99.90;;;;;;4969377;28;20054;-94
2023/07/23 04:58:25;;;;;;;4.25;2.60;;;15.90;99.90;;;;;;4959546;28;20057;-92
2023/07/23 05:00:52;;;;;;;5.07;1.90;;;15.90;99.90;;;;;;4974134;28;20034;-90
2023/07/23 05:03:18;;;;;;;4.88;2.25;;;16.00;99.90;;;;;;4974939;28;20038;-81
2023/07/23 05:05:47;;;;;;;3.45;1.80;;;16.00;99.90;;;;;;4973598;28;20069;-85
2023/07/23 05:08:13;;;;;;;4.13;2.38;;;16.10;99.90;;;;;;4972881;28;20038;-87
2023/07/23 05:10:39;;;;;;;4.45;1.60;;;16.20;99.90;;;;;;4976667;28;20053;-87
2023/07/23 05:13:04;;;;;;;3.42;1.80;;;16.20;99.90;;;;;;4992696;28;20050;-91
2023/07/23 05:15:30;;;;;;;2.97;1.23;;;16.30;99.90;;;;;;4988633;28;20129;-85
2023/07/23 05:17:56;;;;;;;2.85;1.05;;;16.30;99.90;;;;;;4990393;28;20027;-91
2023/07/23 05:20:22;;;;;;;4.20;1.90;;;16.40;99.90;;;;;;4971387;28;20069;-84
2023/07/23 05:22:47;;;;;;;3.10;1.23;;;16.40;99.90;;;;;;4989825;28;20026;-90
2023/07/23 05:25:13;;;;;;;2.90;1.70;;;16.50;99.90;;;;;;4959510;28;20561;-90
2023/07/23 05:27:39;;;;;;;2.22;1.42;;;16.50;99.90;;;;;;4978090;28;20109;-89
2023/07/23 05:30:05;;;;;;;2.85;1.45;;;16.60;99.90;;;;;;4985805;28;20062;-88
2023/07/23 05:32:32;;;;;;;2.95;1.40;;;16.60;99.90;;;;;;4970299;28;20043;-89
2023/07/23 05:34:57;;;;;;;3.67;1.08;;;16.60;99.90;;;;;;4993160;28;20038;-82
2023/07/23 05:37:24;;;;;;;3.80;1.42;;;16.60;99.90;;;;;;4960549;28;20054;-89
2023/07/23 05:39:52;;;;;;;3.05;1.23;;;16.60;99.90;;;;;;4976215;28;20105;-90
2023/07/23 05:42:17;;;;;;;3.50;1.63;;;16.60;99.90;;;;;;4975616;28;20066;-85
2023/07/23 05:44:43;;;;;;;3.33;1.50;;;16.60;99.90;;;;;;4993540;28;20498;-90
2023/07/23 05:47:09;;;;;;;2.90;1.48;;;16.70;99.90;;;;;;4959791;28;20038;-87
2023/07/23 05:49:35;;;;;;;3.22;1.25;;;16.70;99.90;;;;;;4979401;28;20042;-91
2023/07/23 05:52:01;;;;;;;4.10;1.17;;;16.80;99.90;;;;;;4968402;28;20030;-89
2023/07/23 05:54:27;;;;;;;2.63;1.02;;;16.70;99.90;;;;;;4990810;28;20073;-91
2023/07/23 05:56:52;;;;;;;2.80;1.30;;;16.70;99.90;;;;;;4977043;28;20133;-91
2023/07/23 05:59:18;;;;;;;2.65;1.00;;;16.70;99.90;;;;;;4975029;28;20121;-91
2023/07/23 06:01:44;;;;;;;2.90;1.20;;;16.70;99.90;;;;;;4967433;28;20030;-90
2023/07/23 06:04:10;;;;;;;3.08;1.50;;;16.70;99.90;;;;;;4983405;28;20709;-90
2023/07/23 06:06:36;;;;;;;3.17;1.40;;;16.70;99.90;;;;;;4974548;28;20414;-89
2023/07/23 06:09:03;;;;;;;3.53;1.10;;;16.70;99.90;;;;;;4986285;28;20058;-91
2023/07/23 06:11:30;;;;;;;2.35;1.13;;;16.70;99.90;;;;;;4973074;28;20042;-90
2023/07/23 06:13:55;;;;;;;2.85;1.02;;;16.70;99.90;;;;;;4990366;28;20034;-90
2023/07/23 06:16:21;;;;;;;3.58;1.23;;;16.70;99.90;;;;;;4985507;28;20391;-88
2023/07/23 06:18:47;;;;;;;2.40;1.00;;;16.70;99.90;;;;;;4967500;28;20042;-89
2023/07/23 06:21:12;;;;;;;2.72;1.10;;;16.60;99.90;;;;;;4975728;28;20499;-90
2023/07/23 06:23:38;;;;;;;6.85;1.52;;;16.60;99.90;;;;;;4977569;28;20034;-84
2023/07/23 06:26:04;;;;;;;3.47;1.13;;;16.60;99.90;;;;;;4971465;28;20093;-91
2023/07/23 06:28:31;;;;;;;4.70;1.30;;;16.70;99.90;;;;;;4973336;28;20034;-86
2023/07/23 06:30:58;;;;;;;4.15;1.30;;;16.60;99.90;;;;;;4973250;28;20038;-88
2023/07/23 06:33:23;;;;;;;3.60;1.00;;;16.60;99.90;;;;;;4983777;28;20058;-86
2023/07/23 06:35:49;;;;;;;3.70;1.45;;;16.60;99.90;;;;;;4978231;28;20070;-85
2023/07/23 06:38:15;;;;;;;2.97;0.90;;;16.70;99.90;;;;;;4989746;28;20034;-90
2023/07/23 06:40:51;;;;;;;2.42;1.10;;;16.70;99.90;;;;;;4987130;28;20069;-84
2023/07/23 06:43:17;;;;;;;3.97;1.30;;;16.60;99.90;;;;;;4951562;28;20046;-82
2023/07/23 06:45:44;;;;;;;3.15;1.15;;;16.60;99.90;;;;;;4977744;28;20047;-94
2023/07/23 06:48:11;;;;;;;2.47;1.27;;;16.50;99.90;;;;;;4985575;28;20065;-92
2023/07/23 06:50:37;;;;;;;3.45;1.38;;;16.40;99.90;;;;;;4960856;28;20066;-88
2023/07/23 06:53:04;;;;;;;2.78;1.20;;;16.30;99.90;;;;;;4987367;28;20023;-88
2023/07/23 06:55:30;;;;;;;2.35;1.27;;;16.30;99.90;;;;;;4958277;28;20088;-89
2023/07/23 06:57:56;;;;;;;2.88;1.25;;;16.20;99.90;;;;;;4967634;28;20482;-83
2023/07/23 07:00:22;;;;;;;3.00;1.20;;;16.20;99.90;;;;;;4955131;28;20041;-88
2023/07/23 07:02:48;;;;;;;3.55;1.00;;;16.10;99.90;;;;;;4971993;28;20367;-88
2023/07/23 07:05:14;;;;;;;3.70;1.23;;;16.10;99.90;;;;;;4972587;28;20467;-88
2023/07/23 07:07:39;;;;;;;2.22;1.05;;;16.10;99.90;;;;;;4949471;28;20391;-88
2023/07/23 07:10:06;;;;;;;2.53;1.02;;;16.10;99.90;;;;;;4965811;28;20510;-82
2023/07/23 07:12:31;;;;;;;2.63;1.23;;;16.10;99.90;;;;;;4962999;28;20038;-84
2023/07/23 07:14:57;;;;;;;2.28;1.10;;;16.00;99.90;;;;;;4977393;28;20705;-88
2023/07/23 07:17:23;;;;;;;2.65;0.90;;;16.00;99.90;;;;;;4949472;28;20034;-85
2023/07/23 07:19:48;;;;;;;3.47;1.13;;;16.10;99.90;;;;;;4968164;28;20411;-84
2023/07/23 07:22:17;;;;;;;2.00;0.95;;;16.10;99.90;;;;;;4962937;28;20129;-88
2023/07/23 07:24:42;;;;;;;3.33;1.00;;;16.00;99.90;;;;;;4984719;28;20038;-88
2023/07/23 07:27:09;;;;;;;3.08;1.08;;;16.00;99.90;;;;;;4969263;28;20054;-88
2023/07/23 07:29:39;;;;;;;2.63;1.10;;;16.10;99.90;;;;;;4955848;28;20038;-89
2023/07/23 07:32:07;;;;;;;1.83;0.70;;;16.20;99.90;;;;;;4967715;28;20135;-88
2023/07/23 07:34:33;;;;;;;2.53;0.88;;;16.20;99.90;;;;;;4963121;28;20030;-88
2023/07/23 07:36:59;;;;;;;2.35;0.95;;;16.10;99.90;;;;;;4967073;28;20052;-86
2023/07/23 07:39:24;;;;;;;5.07;1.35;;;16.10;99.90;;;;;;4984428;28;20034;-86
2023/07/23 07:41:53;;;;;;;2.92;1.17;;;16.00;99.90;;;;;;4986627;28;20079;-90
2023/07/23 07:44:19;;;;;;;2.92;1.23;;;16.00;99.90;;;;;;4970874;28;20491;-88
2023/07/23 07:46:45;;;;;;;3.40;1.30;;;16.00;99.90;;;;;;4968261;28;20058;-89
2023/07/23 07:49:10;;;;;;;2.53;1.33;;;16.00;99.90;;;;;;4966354;28;20073;-87
2023/07/23 07:51:37;;;;;;;2.97;1.20;;;16.00;99.90;;;;;;4966370;28;20395;-90
2023/07/23 07:54:03;;;;;;;2.50;1.35;;;16.00;99.90;;;;;;4952611;28;20034;-88
2023/07/23 07:56:28;;;;;;;2.92;1.15;;;15.90;99.90;;;;;;4984602;28;20493;-84
2023/07/23 07:58:54;;;;;;;3.95;1.40;;;15.90;99.90;;;;;;4953580;28;20399;-88
2023/07/23 08:01:20;;;;;;;5.55;1.35;;;15.90;99.90;;;;;;4965867;28;20030;-84
2023/07/23 08:03:46;;;;;;;2.50;1.23;;;15.90;99.90;;;;;;4981584;28;20537;-86
2023/07/23 08:06:13;;;;;;;3.42;1.10;;;15.90;99.90;;;;;;4959439;28;20054;-86
2023/07/23 08:08:41;;;;;;;4.05;1.38;;;16.00;99.90;;;;;;4951611;28;20039;-87
2023/07/23 08:11:08;;;;;;;3.85;1.10;;;15.90;99.90;;;;;;4957858;28;20054;-90
2023/07/23 08:13:37;;;;;;;3.60;1.60;;;16.00;99.90;;;;;;4967275;28;20056;-84
2023/07/23 08:16:04;;;;;;;3.13;1.48;;;16.00;99.90;;;;;;4970209;28;20042;-89
2023/07/23 08:18:30;;;;;;;3.28;1.30;;;15.90;99.90;;;;;;4954072;28;20139;-88
2023/07/23 08:20:57;;;;;;;2.22;0.93;;;16.00;99.90;;;;;;4970167;28;20081;-85
2023/07/23 08:23:25;;;;;;;3.40;1.80;;;16.10;99.90;;;;;;4967154;28;20379;-83
2023/07/23 08:25:56;;;;;;;4.18;1.92;;;16.20;99.90;;;;;;4958155;28;20056;-86
2023/07/23 08:28:29;;;;;;;3.30;1.30;;;16.10;99.90;;;;;;4965504;28;20467;-85
2023/07/23 08:30:56;;;;;;;3.20;1.50;;;16.20;99.90;;;;;;4935836;28;20038;-86
2023/07/23 08:33:31;;;;;;;3.13;1.38;;;16.20;99.90;;;;;;4956322;28;20258;-85
2023/07/23 08:35:58;;;;;;;2.22;1.33;;;16.30;99.90;;;;;;4966978;28;20073;-85
2023/07/23 08:38:25;;;;;;;3.50;1.40;;;16.40;99.90;;;;;;4974509;28;20787;-84
2023/07/23 08:41:00;;;;;;;3.75;1.70;;;16.40;99.90;;;;;;4955631;28;20046;-81
2023/07/23 08:43:41;;;;;;;4.82;1.65;;;16.50;99.90;;;;;;4955783;28;20048;-81
2023/07/23 08:46:26;;;;;;;3.28;1.70;;;16.50;99.90;;;;;;4940221;28;20672;-82
2023/07/23 08:48:56;;;;;;;3.28;2.10;;;16.60;99.90;;;;;;4962296;28;20092;-79
2023/07/23 08:51:30;;;;;;;5.70;1.73;;;16.70;99.90;;;;;;4974715;28;20051;-85
2023/07/23 08:53:57;;;;;;;3.05;1.45;;;16.80;99.90;;;;;;4940110;28;20495;-80
2023/07/23 08:56:22;;;;;;;4.40;2.38;;;16.90;99.90;;;;;;4955367;28;20047;-85
2023/07/23 08:58:49;;;;;;;3.80;2.22;;;16.90;99.90;;;;;;4954267;28;20046;-83
2023/07/23 09:01:16;;;;;;;4.25;1.58;;;16.90;99.90;;;;;;4973484;28;20042;-83
2023/07/23 09:03:42;;;;;;;3.22;1.92;;;17.00;99.90;;;;;;4974657;28;20042;-82
2023/07/23 09:06:09;;;;;;;5.47;1.85;;;17.00;99.90;;;;;;4974855;28;20478;-82
2023/07/23 09:08:35;;;;;;;5.40;1.20;;;16.90;99.90;;;;;;4974002;28;20034;-84
2023/07/23 09:11:04;;;;;;;4.43;2.22;;;17.10;99.90;;;;;;4953940;28;20081;-84
2023/07/23 09:13:34;;;;;;;5.70;1.65;;;17.10;99.90;;;;;;4950399;28;20586;-82
2023/07/23 09:16:00;;;;;;;3.55;2.13;;;17.00;99.90;;;;;;4961126;28;20146;-86
2023/07/23 09:18:26;;;;;;;3.70;1.25;;;17.10;99.90;;;;;;4947500;28;20038;-85
2023/07/23 09:20:52;;;;;;;3.58;1.48;;;17.10;99.90;;;;;;4950193;28;20498;-83
2023/07/23 09:23:17;;;;;;;2.75;1.13;;;17.10;99.90;;;;;;4966792;28;20088;-85
2023/07/23 09:25:44;;;;;;;2.47;1.15;;;17.10;99.90;;;;;;4933710;28;20162;-84
2023/07/23 09:28:23;;;;;;;3.00;0.95;;;17.00;99.90;;;;;;4933167;28;20035;-89
2023/07/23 09:30:55;;;;;;;2.13;0.90;;;17.00;99.90;;;;;;4949184;28;20047;-85
2023/07/23 09:33:21;;;;;;;2.40;0.90;;;17.00;99.90;;;;;;4950797;28;20059;-85
2023/07/23 09:35:47;;;;;;;1.30;0.60;;;17.10;99.90;;;;;;4954459;28;20042;-86
2023/07/23 09:38:15;;;;;;;2.20;0.70;;;17.10;99.90;;;;;;4952304;28;20038;-86
2023/07/23 09:40:42;;;;;;;2.15;0.70;;;17.30;99.90;;;;;;4941517;28;20126;-82
2023/07/23 09:43:08;;;;;;;1.85;0.60;;;17.30;99.90;;;;;;4949586;28;20110;-81
2023/07/23 09:45:39;;;;;;;2.72;0.57;;;17.30;99.90;;;;;;4933099;28;20126;-82
2023/07/23 09:48:06;;;;;;;2.63;0.57;;;17.30;99.90;;;;;;4947902;28;20046;-85
2023/07/23 09:50:32;;;;;;;1.27;0.60;;;17.40;99.90;;;;;;4967076;28;20065;-88
2023/07/23 09:52:57;;;;;;;2.92;0.50;;;17.40;99.90;;;;;;4968366;28;20146;-87
2023/07/23 09:55:23;;;;;;;1.70;0.60;;;17.40;99.90;;;;;;4966679;28;20046;-86
2023/07/23 09:57:52;;;;;;;2.90;0.57;;;17.30;99.90;;;;;;4949072;28;20068;-87
2023/07/23 10:00:19;;;;;;;1.60;0.50;;;17.30;99.90;;;;;;4932710;28;20054;-82
2023/07/23 10:02:49;;;;;;;2.58;0.63;;;17.30;99.90;;;;;;4948636;28;20042;-85
2023/07/23 10:05:17;;;;;;;;;;;17.30;99.90;;;;;;4938861;28;20051;-87
2023/07/23 10:07:45;;;;;;;2.03;0.50;;;17.40;99.90;;;;;;4948971;28;19917;-83
2023/07/23 10:10:12;;;;;;;1.50;0.50;;;17.30;99.90;;;;;;4948703;28;20518;-86
2023/07/23 10:12:38;;;;;;;1.33;0.47;;;17.30;99.90;;;;;;4954892;28;20050;-87
2023/07/23 10:15:05;;;;;;;1.05;0.40;;;17.30;99.90;;;;;;4958430;28;20057;-84
2023/07/23 10:17:31;;;;;;;1.70;0.50;;;17.30;99.90;;;;;;4958386;28;20093;-87
2023/07/23 10:19:57;;;;;;;1.10;0.50;;;17.20;99.90;;;;;;4940548;28;20081;-84
2023/07/23 10:22:23;;;;;;;0.82;0.30;;;17.40;99.90;;;;;;4958093;28;20117;-85
2023/07/23 10:24:52;;;;;;;2.15;0.40;;;17.20;99.90;;;;;;4942724;28;20047;-85
2023/07/23 10:27:18;;;;;;;2.00;0.40;;;17.30;99.90;;;;;;4958087;28;20050;-84
2023/07/23 10:30:17;;;;;;;1.00;0.30;;;17.30;99.90;;;;;;4941672;28;20104;-81
2023/07/23 10:32:44;;;;;;;1.02;0.40;;;17.30;99.90;;;;;;4977964;28;20077;-89
2023/07/23 10:35:10;;;;;;;0.80;0.35;;;17.40;99.90;;;;;;4977270;28;20038;-82
2023/07/23 10:37:36;;;;;;;0.65;0.30;;;17.50;99.90;;;;;;4957573;28;20135;-86
2023/07/23 10:40:03;;;;;;;0.70;0.30;;;17.50;99.90;;;;;;4940108;28;20455;-86
2023/07/23 10:42:34;;;;;;;1.25;0.40;;;17.60;99.90;;;;;;4942490;28;20073;-84
2023/07/23 10:45:21;;;;;;;1.92;0.30;;;17.50;99.90;;;;;;4941652;28;21188;-83
2023/07/23 10:47:49;;;;;;;2.17;0.50;;;17.40;99.90;;;;;;4975593;28;20236;-80
2023/07/23 10:50:17;;;;;;;0.80;0.30;;;17.40;99.90;;;;;;4956066;28;20049;-84
2023/07/23 10:52:48;;;;;;;0.68;0.30;;;17.40;99.90;;;;;;4941254;28;20042;-85
2023/07/23 10:55:33;;;;;;;0.80;0.30;;;17.40;99.90;;;;;;4961755;28;20041;-88
2023/07/23 10:58:01;;;;;;;0.90;0.30;;;17.40;99.90;;;;;;4969322;28;20045;-86
2023/07/23 11:00:27;;;;;;;0.70;0.30;;;17.20;99.90;;;;;;4966942;28;20059;-87
2023/07/23 11:02:53;;;;;;;1.08;0.30;;;17.20;99.90;;;;;;4954478;28;20038;-84
2023/07/23 11:05:21;;;;;;;1.00;0.40;;;17.20;99.90;;;;;;4970942;28;20065;-86
2023/07/23 11:08:26;;;;;;;0.70;0.30;;;17.10;99.90;;;;;;4967223;28;20030;-86
2023/07/23 11:10:58;;;;;;;0.85;0.30;;;17.20;99.90;;;;;;4970644;28;20045;-87
2023/07/23 11:13:32;;;;;;;1.05;0.30;;;17.20;99.90;;;;;;4968465;28;20431;-86
2023/07/23 11:15:58;;;;;;;1.15;0.20;;;17.20;99.90;;;;;;4966854;28;20400;-87
2023/07/23 11:18:25;;;;;;;0.60;0.30;;;17.20;99.90;;;;;;4969903;28;20031;-88
2023/07/23 11:20:52;;;;;;;0.70;0.28;;;17.30;99.90;;;;;;4969902;28;20038;-86
2023/07/23 11:23:20;;;;;;;2.55;0.30;;;17.40;99.90;;;;;;4953733;28;20034;-85
2023/07/23 11:25:48;;;;;;;1.00;0.40;;;17.30;99.90;;;;;;4967052;28;20375;-84
2023/07/23 11:28:16;;;;;;;2.28;0.30;;;17.20;99.90;;;;;;4965890;28;20117;-84
2023/07/23 11:30:42;;;;;;;0.90;0.30;;;17.20;99.90;;;;;;4986242;28;20034;-85
2023/07/23 11:33:08;;;;;;;1.10;0.40;;;17.20;99.90;;;;;;4953652;28;20046;-87
2023/07/23 11:35:35;;;;;;;2.03;0.40;;;17.10;99.90;;;;;;4954225;28;20038;-86
2023/07/23 11:38:05;;;;;;;1.02;0.40;;;17.10;99.90;;;;;;4986285;28;20057;-84
2023/07/23 11:40:31;;;;;;;0.88;0.30;;;17.10;99.90;;;;;;4966543;28;20042;-82
2023/07/23 11:43:04;;;;;;;0.60;0.30;;;17.20;99.90;;;;;;4954061;28;20042;-84
2023/07/23 11:45:30;;;;;;;0.88;0.35;;;17.40;99.90;;;;;;4954474;28;20058;-85
2023/07/23 11:47:55;;;;;;;0.85;0.45;;;17.50;99.90;;;;;;4969808;28;20113;-86
2023/07/23 11:50:24;;;;;;;1.10;0.40;;;17.50;99.90;;;;;;4969231;28;20038;-86
2023/07/23 11:52:51;;;;;;;0.95;0.40;;;17.60;99.90;;;;;;4969378;28;20042;-84
2023/07/23 11:55:25;;;;;;;1.10;0.50;;;17.70;99.90;;;;;;4967123;28;20517;-86
2023/07/23 11:57:55;;;;;;;1.13;0.40;;;17.70;99.90;;;;;;4960469;28;20049;-87
2023/07/23 12:00:25;;;;;;;1.90;0.52;;;18.00;99.90;;;;;;4967650;28;20145;-85
2023/07/23 12:02:51;;;;;;;1.67;0.60;;;18.00;99.90;;;;;;4979963;28;20170;-85
2023/07/23 12:05:17;;;;;;;1.23;0.50;;;18.10;99.90;;;;;;4951448;28;20470;-87
2023/07/23 12:07:43;;;;;;;1.60;0.80;;;18.30;99.90;;;;;;4971581;28;20045;-86
2023/07/23 12:10:12;;;;;;;1.35;0.57;;;18.40;99.90;;;;;;4966923;28;20054;-82
2023/07/23 12:12:37;;;;;;;1.30;0.50;;;18.60;99.90;;;;;;4976495;28;20058;-81
2023/07/23 12:15:04;;;;;;;1.38;0.70;;;18.70;99.90;;;;;;4965799;28;20105;-85
2023/07/23 12:17:30;;;;;;;1.80;0.60;;;19.00;99.90;;;;;;4945014;28;20031;-87
2023/07/23 12:19:55;;;;;;;1.30;0.60;;;19.30;99.90;;;;;;4967533;28;20061;-84
2023/07/23 12:22:24;;;;;;;2.38;0.50;;;19.40;99.90;;;;;;4975999;28;20054;-83
2023/07/23 12:24:50;;;;;;;1.90;0.90;;;19.50;99.90;;;;;;4932273;28;20586;-85
2023/07/23 12:27:15;;;;;;;1.90;1.17;;;19.50;99.90;;;;;;4952231;28;20059;-84
2023/07/23 12:29:42;;;;;;;1.90;1.05;;;19.20;99.90;;;;;;4937868;28;20065;-84
2023/07/23 12:32:13;;;;;;;1.40;0.80;;;19.20;99.90;;;;;;4953702;28;20156;-86
2023/07/23 12:34:41;;;;;;;1.60;0.70;;;19.60;99.90;;;;;;4952933;28;20042;-84
2023/07/23 12:37:08;;;;;;;2.63;0.95;;;19.80;99.90;;;;;;4950603;28;20034;-86
2023/07/23 12:39:34;;;;;;;1.98;1.02;;;19.90;99.90;;;;;;4953143;28;20045;-82
2023/07/23 12:41:59;;;;;;;1.70;1.00;;;19.60;99.90;;;;;;4944784;28;20034;-85
2023/07/23 12:44:26;;;;;;;1.90;1.42;;;19.80;99.90;;;;;;4936955;28;20106;-85
2023/07/23 12:46:52;;;;;;;1.85;1.08;;;19.80;99.90;;;;;;4955809;28;20039;-81